Time;durP1;ratioP1;P1;durP2;ratioP2;P2;SDS_P1;SDS_P2;PMS_P1;PMS_P2;Temp;Humidity;BMP_temperature;BMP_pressure;BME280_temperature;BME280_humidity;BME280_pressure;Samples;Min_cycle;Max_cycle;Signal;HPM_P1;HPM_P2
2022/07/22 00:01:49;;;;;;;11.65;2.65;;;16.40;99.90;;;;;;5035160;28;20100;-81
2022/07/22 00:04:16;;;;;;;7.38;1.98;;;17.10;99.90;;;;;;5045463;28;20095;-81
2022/07/22 00:06:42;;;;;;;8.00;2.50;;;17.30;99.90;;;;;;5048725;28;20368;-81
2022/07/22 00:09:07;;;;;;;11.10;2.95;;;16.80;99.90;;;;;;5040543;28;20044;-82
2022/07/22 00:11:33;;;;;;;12.23;2.92;;;16.20;99.90;;;;;;5040621;28;20399;-82
2022/07/22 00:13:59;;;;;;;8.73;2.53;;;16.40;99.90;;;;;;5019449;28;20044;-82
2022/07/22 00:16:24;;;;;;;8.32;2.90;;;16.40;99.90;;;;;;5053939;28;20034;-81
2022/07/22 00:18:50;;;;;;;7.30;2.30;;;17.20;99.90;;;;;;5031173;28;20068;-81
2022/07/22 00:21:15;;;;;;;11.50;3.70;;;16.80;99.90;;;;;;5054110;28;20074;-81
2022/07/22 00:23:41;;;;;;;11.52;3.15;;;17.00;99.90;;;;;;5054656;28;20139;-81
2022/07/22 00:26:07;;;;;;;10.27;2.70;;;17.00;99.90;;;;;;5030361;28;20041;-81
2022/07/22 00:28:32;;;;;;;13.07;3.17;;;17.00;99.90;;;;;;5061983;28;20045;-81
2022/07/22 00:30:58;;;;;;;13.25;3.75;;;17.30;99.90;;;;;;5057155;28;20048;-82
2022/07/22 00:33:24;;;;;;;9.60;3.05;;;17.10;99.90;;;;;;5050722;28;20068;-82
2022/07/22 00:35:49;;;;;;;14.73;3.58;;;16.40;99.90;;;;;;5038368;28;20072;-81
2022/07/22 00:38:15;;;;;;;9.38;3.20;;;17.10;99.90;;;;;;5016470;28;20091;-82
2022/07/22 00:40:41;;;;;;;10.00;2.78;;;16.90;99.90;;;;;;5048699;28;20041;-81
2022/07/22 00:43:07;;;;;;;8.65;3.10;;;16.40;99.90;;;;;;5045552;28;20044;-81
2022/07/22 00:45:32;;;;;;;10.98;3.33;;;16.80;99.90;;;;;;5037194;28;21631;-82
2022/07/22 00:47:58;;;;;;;9.30;3.25;;;16.40;99.90;;;;;;5044317;28;20485;-82
2022/07/22 00:50:24;;;;;;;10.13;3.53;;;16.30;99.90;;;;;;5022353;28;20481;-82
2022/07/22 00:52:50;;;;;;;8.23;2.97;;;16.50;99.90;;;;;;5051305;28;20120;-82
2022/07/22 00:55:16;;;;;;;14.02;3.10;;;15.90;99.90;;;;;;5035912;28;20172;-82
2022/07/22 00:57:41;;;;;;;10.65;3.35;;;17.10;99.90;;;;;;5057366;28;20472;-82
2022/07/22 01:00:11;;;;;;;10.10;2.90;;;16.50;99.90;;;;;;5033419;28;20045;-81
2022/07/22 01:02:36;;;;;;;13.75;3.80;;;16.50;99.90;;;;;;5027321;28;20049;-82
2022/07/22 01:05:02;;;;;;;13.45;3.25;;;17.60;99.90;;;;;;5038466;28;20038;-82
2022/07/22 01:07:28;;;;;;;9.13;2.92;;;16.40;99.90;;;;;;5041841;28;20496;-82
2022/07/22 01:09:53;;;;;;;7.07;2.63;;;17.30;99.90;;;;;;5040427;28;20040;-82
2022/07/22 01:12:19;;;;;;;16.77;3.45;;;16.70;99.90;;;;;;5043806;28;20053;-82
2022/07/22 01:14:45;;;;;;;10.15;3.20;;;16.20;99.90;;;;;;5038326;28;20048;-82
2022/07/22 01:17:10;;;;;;;8.80;2.80;;;17.10;99.90;;;;;;5030589;28;20049;-82
2022/07/22 01:19:37;;;;;;;12.30;2.83;;;16.30;99.90;;;;;;5054273;28;20049;-82
2022/07/22 01:22:03;;;;;;;14.65;2.55;;;16.50;99.90;;;;;;5042941;28;20095;-82
2022/07/22 01:24:29;;;;;;;9.07;2.38;;;16.30;99.90;;;;;;5044228;28;20056;-82
2022/07/22 01:26:54;;;;;;;11.60;3.33;;;16.30;99.90;;;;;;5049672;28;20045;-82
2022/07/22 01:29:20;;;;;;;11.15;3.22;;;16.30;99.90;;;;;;5048034;28;20052;-82
2022/07/22 01:31:46;;;;;;;13.35;2.78;;;16.70;99.90;;;;;;5031677;28;20037;-82
2022/07/22 01:34:12;;;;;;;8.35;2.60;;;17.20;99.90;;;;;;5034407;28;20051;-82
2022/07/22 01:36:38;;;;;;;8.23;2.50;;;16.30;99.90;;;;;;5046155;28;20405;-82
2022/07/22 01:39:04;;;;;;;9.60;2.53;;;17.10;99.90;;;;;;5037086;28;20048;-82
2022/07/22 01:41:29;;;;;;;6.85;2.30;;;16.90;99.90;;;;;;5034454;28;20516;-82
2022/07/22 01:43:55;;;;;;;10.45;2.78;;;16.30;99.90;;;;;;5037686;28;20456;-82
2022/07/22 01:46:22;;;;;;;6.90;2.15;;;16.40;99.90;;;;;;5015394;28;20083;-82
2022/07/22 01:48:49;;;;;;;9.82;2.50;;;16.40;99.90;;;;;;5015780;28;20056;-82
2022/07/22 01:51:15;;;;;;;10.85;2.08;;;17.00;99.90;;;;;;5038658;28;20128;-82
2022/07/22 01:53:40;;;;;;;11.15;2.60;;;17.00;99.90;;;;;;5032550;28;20132;-82
2022/07/22 01:56:06;;;;;;;9.05;2.80;;;16.50;99.90;;;;;;5043540;28;20041;-82
2022/07/22 01:58:32;;;;;;;15.23;2.50;;;15.90;99.90;;;;;;5047250;28;20094;-82
2022/07/22 02:00:58;;;;;;;8.82;2.05;;;17.00;99.90;;;;;;5025715;28;20041;-82
2022/07/22 02:03:23;;;;;;;10.98;2.53;;;16.20;99.90;;;;;;5044062;28;20044;-82
2022/07/22 02:05:49;;;;;;;13.18;2.20;;;17.10;99.90;;;;;;5047925;28;20042;-83
2022/07/22 02:08:15;;;;;;;8.27;2.13;;;16.40;99.90;;;;;;5042034;28;20049;-83
2022/07/22 02:10:41;;;;;;;9.63;2.53;;;16.30;99.90;;;;;;5045592;28;20091;-82
2022/07/22 02:13:06;;;;;;;10.45;2.42;;;16.70;99.90;;;;;;5059899;28;20047;-82
2022/07/22 02:15:33;;;;;;;9.63;3.35;;;16.80;99.90;;;;;;5057650;28;20052;-83
2022/07/22 02:17:58;;;;;;;9.10;2.38;;;16.30;99.90;;;;;;5031713;28;20045;-81
2022/07/22 02:20:24;;;;;;;9.68;2.40;;;16.20;99.90;;;;;;5045695;28;20052;-81
2022/07/22 02:22:49;;;;;;;7.00;1.77;;;16.90;99.90;;;;;;5045171;28;20415;-81
2022/07/22 02:25:15;;;;;;;7.80;2.00;;;16.50;99.90;;;;;;5044031;28;20091;-80
2022/07/22 02:27:41;;;;;;;6.50;1.75;;;16.20;99.90;;;;;;5054710;28;20483;-81
2022/07/22 02:30:08;;;;;;;11.50;2.53;;;16.30;99.90;;;;;;5037147;28;20049;-81
2022/07/22 02:32:34;;;;;;;8.43;1.92;;;16.20;99.90;;;;;;5043872;28;20148;-80
2022/07/22 02:35:00;;;;;;;9.02;1.73;;;16.30;99.90;;;;;;5038064;28;20053;-81
2022/07/22 02:37:25;;;;;;;10.23;1.98;;;16.80;99.90;;;;;;5020483;28;20107;-80
2022/07/22 02:39:51;;;;;;;7.50;1.63;;;15.70;99.90;;;;;;5034054;28;20095;-81
2022/07/22 02:42:17;;;;;;;7.13;1.80;;;15.50;99.90;;;;;;5045445;28;20045;-81
2022/07/22 02:44:42;;;;;;;8.25;2.00;;;16.10;99.90;;;;;;5028170;28;20045;-81
2022/07/22 02:47:08;;;;;;;6.63;1.73;;;16.20;99.90;;;;;;5040654;28;20049;-81
2022/07/22 02:49:33;;;;;;;6.97;1.88;;;16.60;99.90;;;;;;5037491;28;20473;-82
2022/07/22 02:51:59;;;;;;;6.25;1.73;;;16.50;99.90;;;;;;5022456;28;20470;-82
2022/07/22 02:54:25;;;;;;;8.52;1.70;;;16.90;99.90;;;;;;5029386;28;20053;-82
2022/07/22 02:56:50;;;;;;;9.55;2.28;;;16.80;99.90;;;;;;5026089;28;20400;-82
2022/07/22 02:59:16;;;;;;;5.43;1.80;;;15.90;99.90;;;;;;5017506;28;20418;-82
2022/07/22 03:01:41;;;;;;;7.35;1.40;;;16.70;99.90;;;;;;5040076;28;20083;-82
2022/07/22 03:04:07;;;;;;;7.78;1.75;;;16.00;99.90;;;;;;5030784;28;20048;-82
2022/07/22 03:06:33;;;;;;;7.65;1.50;;;16.30;99.90;;;;;;5040857;28;20036;-82
2022/07/22 03:08:58;;;;;;;9.73;1.73;;;16.70;99.90;;;;;;5040469;28;20129;-82
2022/07/22 03:11:24;;;;;;;5.97;1.60;;;16.40;99.90;;;;;;5038272;28;20139;-82
2022/07/22 03:13:49;;;;;;;7.35;1.80;;;16.30;99.90;;;;;;5030479;28;20076;-82
2022/07/22 03:16:15;;;;;;;6.40;1.40;;;16.30;99.90;;;;;;5030997;28;20049;-82
2022/07/22 03:18:40;;;;;;;8.27;1.58;;;15.80;99.90;;;;;;5013494;28;20835;-82
2022/07/22 03:21:06;;;;;;;5.78;1.48;;;16.80;99.90;;;;;;5041327;28;20044;-82
2022/07/22 03:23:32;;;;;;;7.05;1.52;;;16.00;99.90;;;;;;5016046;28;20541;-82
2022/07/22 03:25:57;;;;;;;7.63;1.42;;;15.90;99.90;;;;;;5041279;28;20048;-82
2022/07/22 03:28:23;;;;;;;9.20;1.60;;;16.70;99.90;;;;;;5040527;28;20544;-82
2022/07/22 03:30:49;;;;;;;4.88;1.33;;;16.00;99.90;;;;;;5031299;28;20040;-82
2022/07/22 03:33:14;;;;;;;4.10;1.20;;;16.30;99.90;;;;;;5043683;28;20069;-82
2022/07/22 03:35:40;;;;;;;6.88;1.80;;;16.00;99.90;;;;;;5026689;28;20061;-82
2022/07/22 03:38:06;;;;;;;7.32;1.30;;;16.30;99.90;;;;;;5040954;28;20508;-82
2022/07/22 03:40:32;;;;;;;4.90;1.50;;;16.40;99.90;;;;;;5034539;28;20138;-82
2022/07/22 03:42:57;;;;;;;8.20;1.25;;;16.20;99.90;;;;;;5045821;28;20076;-82
2022/07/22 03:45:23;;;;;;;4.65;1.10;;;16.30;99.90;;;;;;5044282;28;20037;-82
2022/07/22 03:47:48;;;;;;;6.55;1.27;;;16.00;99.90;;;;;;5041605;28;20040;-82
2022/07/22 03:50:14;;;;;;;7.57;1.77;;;16.00;99.90;;;;;;5040869;28;20049;-81
2022/07/22 03:52:40;;;;;;;6.50;1.60;;;16.10;99.90;;;;;;5050971;28;20037;-82
2022/07/22 03:55:06;;;;;;;6.55;1.48;;;16.40;99.90;;;;;;5042188;28;20063;-82
2022/07/22 03:57:32;;;;;;;5.50;1.33;;;16.00;99.90;;;;;;5044214;28;20468;-82
2022/07/22 03:59:57;;;;;;;6.20;1.30;;;16.50;99.90;;;;;;5036037;28;20049;-82
2022/07/22 04:02:23;;;;;;;4.55;1.20;;;16.50;99.90;;;;;;5041243;28;20403;-82
2022/07/22 04:04:48;;;;;;;5.47;1.30;;;15.90;99.90;;;;;;5014248;28;20069;-82
2022/07/22 04:07:14;;;;;;;5.55;1.55;;;16.30;99.90;;;;;;5027790;28;20064;-82
2022/07/22 04:09:39;;;;;;;7.55;1.58;;;16.70;99.90;;;;;;5041172;28;20049;-82
2022/07/22 04:12:05;;;;;;;7.07;1.52;;;16.00;99.90;;;;;;5041574;28;20041;-82
2022/07/22 04:14:31;;;;;;;11.25;2.25;;;15.90;99.90;;;;;;5032049;28;20053;-82
2022/07/22 04:16:56;;;;;;;6.38;1.27;;;16.60;99.90;;;;;;5038822;28;20516;-82
2022/07/22 04:19:22;;;;;;;6.18;1.42;;;16.10;99.90;;;;;;5035899;28;20040;-82
2022/07/22 04:21:48;;;;;;;6.43;1.42;;;16.00;99.90;;;;;;5030761;28;20095;-82
2022/07/22 04:24:13;;;;;;;6.95;1.25;;;15.90;99.90;;;;;;5046988;28;20113;-82
2022/07/22 04:26:39;;;;;;;6.65;1.48;;;15.90;99.90;;;;;;5048132;28;20052;-82
2022/07/22 04:29:06;;;;;;;6.75;1.35;;;16.90;99.90;;;;;;5041999;28;20473;-82
2022/07/22 04:31:32;;;;;;;6.63;1.38;;;16.20;99.90;;;;;;5041647;28;20516;-82
2022/07/22 04:33:58;;;;;;;6.40;1.25;;;16.90;99.90;;;;;;5041772;28;20899;-83
2022/07/22 04:36:24;;;;;;;8.95;1.20;;;16.00;99.90;;;;;;5043048;28;20098;-83
2022/07/22 04:38:49;;;;;;;7.03;1.50;;;16.70;99.90;;;;;;5056087;28;20477;-83
2022/07/22 04:41:15;;;;;;;3.65;1.27;;;16.00;99.90;;;;;;5033076;28;20083;-83
2022/07/22 04:43:41;;;;;;;4.28;1.33;;;16.00;99.90;;;;;;5048356;28;20496;-82
2022/07/22 04:46:07;;;;;;;6.78;1.50;;;16.20;99.90;;;;;;5033474;28;20044;-82
2022/07/22 04:48:32;;;;;;;8.43;1.80;;;15.90;99.90;;;;;;5044875;28;20124;-82
2022/07/22 04:51:01;;;;;;;6.38;1.55;;;16.10;99.90;;;;;;5022073;28;20049;-82
2022/07/22 04:53:27;;;;;;;7.72;1.42;;;16.50;99.90;;;;;;5054766;28;20044;-82
2022/07/22 04:55:53;;;;;;;4.57;1.25;;;16.70;99.90;;;;;;5029565;28;20049;-83
2022/07/22 04:58:19;;;;;;;9.55;1.38;;;15.90;99.90;;;;;;5046291;28;20036;-83
2022/07/22 05:00:46;;;;;;;5.90;1.30;;;16.20;99.90;;;;;;5045142;28;21718;-83
2022/07/22 05:03:12;;;;;;;5.13;1.20;;;16.00;99.90;;;;;;5047295;28;20053;-82
2022/07/22 05:05:37;;;;;;;7.28;1.60;;;16.10;99.90;;;;;;5035785;28;20374;-83
2022/07/22 05:08:03;;;;;;;4.78;1.40;;;16.90;99.90;;;;;;5052134;28;20045;-82
2022/07/22 05:10:29;;;;;;;4.88;1.60;;;16.10;99.90;;;;;;5038918;28;20041;-83
2022/07/22 05:12:54;;;;;;;7.03;1.30;;;16.10;99.90;;;;;;5053641;28;20135;-82
2022/07/22 05:15:20;;;;;;;6.78;1.70;;;16.60;99.90;;;;;;5028937;28;20075;-82
2022/07/22 05:17:46;;;;;;;5.97;1.50;;;16.30;99.90;;;;;;5057753;28;20053;-83
2022/07/22 05:20:12;;;;;;;4.57;1.27;;;17.00;99.90;;;;;;5032909;28;20140;-83
2022/07/22 05:22:37;;;;;;;9.65;1.98;;;16.40;99.90;;;;;;5041462;28;20148;-82
2022/07/22 05:25:03;;;;;;;5.07;1.35;;;16.20;99.90;;;;;;5049481;28;20036;-82
2022/07/22 05:27:29;;;;;;;7.18;1.58;;;16.20;99.90;;;;;;5029240;28;20041;-82
2022/07/22 05:29:54;;;;;;;8.48;1.70;;;16.90;99.90;;;;;;5038841;28;20052;-83
2022/07/22 05:32:20;;;;;;;8.93;1.80;;;16.90;99.90;;;;;;5016842;28;20435;-82
2022/07/22 05:34:45;;;;;;;4.72;1.40;;;16.30;99.90;;;;;;5043700;28;20088;-82
2022/07/22 05:37:11;;;;;;;6.47;1.27;;;16.30;99.90;;;;;;5022763;28;20054;-82
2022/07/22 05:39:36;;;;;;;9.23;1.58;;;16.30;99.90;;;;;;5027144;28;20541;-83
2022/07/22 05:42:02;;;;;;;6.85;1.60;;;16.40;99.90;;;;;;5037345;28;20084;-82
2022/07/22 05:44:28;;;;;;;8.02;1.40;;;16.40;99.90;;;;;;5035276;28;20041;-83
2022/07/22 05:46:53;;;;;;;8.20;1.25;;;16.40;99.90;;;;;;5039079;28;20041;-82
2022/07/22 05:49:21;;;;;;;6.03;1.25;;;16.50;99.90;;;;;;5035059;28;20403;-81
2022/07/22 05:51:47;;;;;;;3.60;1.23;;;16.50;99.90;;;;;;5036295;28;20576;-83
2022/07/22 05:54:13;;;;;;;6.55;1.45;;;17.10;99.90;;;;;;5030912;28;20132;-83
2022/07/22 05:56:38;;;;;;;5.25;1.38;;;16.70;99.90;;;;;;5040249;28;20116;-91
2022/07/22 05:59:04;;;;;;;6.00;1.33;;;16.50;99.90;;;;;;5028591;28;20089;-87
2022/07/22 06:01:29;;;;;;;4.20;1.30;;;17.00;99.90;;;;;;5050400;28;20124;-87
2022/07/22 06:03:55;;;;;;;6.72;1.50;;;17.30;99.90;;;;;;5022187;28;20049;-87
2022/07/22 06:06:20;;;;;;;5.63;1.10;;;17.00;99.90;;;;;;5020411;28;20049;-87
2022/07/22 06:08:46;;;;;;;4.65;1.23;;;17.30;99.90;;;;;;5018582;28;20045;-85
2022/07/22 06:11:12;;;;;;;5.55;1.35;;;17.30;99.90;;;;;;5040935;28;20404;-87
2022/07/22 06:13:38;;;;;;;6.07;1.23;;;16.70;99.90;;;;;;5045662;28;20051;-87
2022/07/22 06:16:05;;;;;;;5.60;1.23;;;17.50;99.90;;;;;;5019473;28;20151;-89
2022/07/22 06:18:30;;;;;;;6.75;1.67;;;16.70;99.90;;;;;;5050872;28;20045;-91
2022/07/22 06:20:56;;;;;;;8.40;1.35;;;17.40;99.90;;;;;;5048566;28;20041;-83
2022/07/22 06:23:24;;;;;;;5.18;1.08;;;16.90;99.90;;;;;;5044051;28;20045;-81
2022/07/22 06:25:49;;;;;;;4.35;1.25;;;16.80;99.90;;;;;;5039541;28;20500;-83
2022/07/22 06:28:15;;;;;;;5.70;1.13;;;16.80;99.90;;;;;;5040595;28;20091;-80
2022/07/22 06:30:41;;;;;;;5.45;1.13;;;16.80;99.90;;;;;;5046556;28;20053;-80
2022/07/22 06:33:07;;;;;;;8.15;1.48;;;16.80;99.90;;;;;;5032948;28;20053;-80
2022/07/22 06:35:32;;;;;;;4.55;1.13;;;16.90;99.90;;;;;;5017868;28;20143;-81
2022/07/22 06:37:58;;;;;;;6.93;1.08;;;16.90;99.90;;;;;;5041233;28;20040;-80
2022/07/22 06:40:23;;;;;;;6.35;1.05;;;17.00;99.90;;;;;;5039422;28;20252;-85
2022/07/22 06:42:49;;;;;;;10.10;1.17;;;17.00;99.90;;;;;;5044206;28;20049;-83
2022/07/22 06:45:15;;;;;;;4.82;1.13;;;17.10;99.90;;;;;;5051490;28;20033;-83
2022/07/22 06:47:40;;;;;;;3.83;1.08;;;17.10;99.90;;;;;;5062928;28;20053;-83
2022/07/22 06:50:07;;;;;;;7.13;1.20;;;17.20;99.90;;;;;;5030262;28;20116;-84
2022/07/22 06:52:33;;;;;;;7.82;1.15;;;17.30;99.90;;;;;;5033808;28;20041;-83
2022/07/22 06:54:59;;;;;;;9.40;1.65;;;17.30;99.90;;;;;;5050600;28;20041;-83
2022/07/22 06:57:24;;;;;;;5.70;1.00;;;17.70;99.90;;;;;;5050697;28;20057;-83
2022/07/22 06:59:50;;;;;;;3.83;1.00;;;17.70;99.90;;;;;;5052813;28;20048;-84
2022/07/22 07:02:16;;;;;;;7.75;1.25;;;17.50;99.90;;;;;;5033807;28;20055;-81
2022/07/22 07:04:41;;;;;;;6.55;1.33;;;17.50;99.90;;;;;;5044257;28;20125;-81
2022/07/22 07:07:08;;;;;;;8.10;1.35;;;17.50;99.90;;;;;;5022302;28;20045;-81
2022/07/22 07:09:34;;;;;;;5.05;1.13;;;17.60;99.90;;;;;;5031084;28;20037;-81
2022/07/22 07:12:00;;;;;;;7.63;1.63;;;17.60;99.90;;;;;;5050826;28;20091;-80
2022/07/22 07:14:26;;;;;;;6.05;1.40;;;17.60;99.90;;;;;;5041860;28;20055;-81
2022/07/22 07:16:51;;;;;;;7.32;1.73;;;17.70;99.90;;;;;;5021786;28;20099;-82
2022/07/22 07:19:19;;;;;;;5.57;1.10;;;17.90;99.90;;;;;;5038152;28;20068;-82
2022/07/22 07:21:45;;;;;;;7.65;1.25;;;17.90;99.90;;;;;;5014174;28;20095;-82
2022/07/22 07:24:11;;;;;;;3.65;1.20;;;17.90;99.90;;;;;;5012677;28;20053;-82
2022/07/22 07:26:38;;;;;;;4.90;0.90;;;17.90;99.90;;;;;;5034192;28;20432;-82
2022/07/22 07:29:04;;;;;;;6.00;1.13;;;17.90;99.90;;;;;;5014330;28;20410;-84
2022/07/22 07:31:31;;;;;;;6.13;1.17;;;17.90;99.90;;;;;;5040895;28;20052;-82
2022/07/22 07:33:58;;;;;;;3.78;0.90;;;17.90;99.90;;;;;;5030006;28;20156;-82
2022/07/22 07:36:24;;;;;;;7.60;1.55;;;17.90;99.90;;;;;;5034294;28;20041;-82
2022/07/22 07:38:50;;;;;;;6.72;1.10;;;18.00;99.90;;;;;;5028397;28;20053;-83
2022/07/22 07:41:17;;;;;;;3.78;1.33;;;18.10;99.90;;;;;;5034297;28;20838;-82
2022/07/22 07:43:43;;;;;;;5.60;1.10;;;18.10;99.90;;;;;;5046010;28;20380;-82
2022/07/22 07:46:09;;;;;;;5.20;0.90;;;18.20;99.90;;;;;;5038843;28;20049;-83
2022/07/22 07:48:35;;;;;;;6.63;1.40;;;18.30;99.90;;;;;;5030125;28;20050;-83
2022/07/22 07:51:01;;;;;;;5.20;1.17;;;18.30;99.90;;;;;;5030424;28;20045;-83
2022/07/22 07:53:27;;;;;;;8.45;1.30;;;18.40;99.90;;;;;;5036261;28;20100;-83
2022/07/22 07:55:53;;;;;;;6.68;1.73;;;18.40;99.90;;;;;;5018778;28;20049;-83
2022/07/22 07:58:18;;;;;;;5.63;0.80;;;18.30;99.90;;;;;;5045651;28;20051;-83
2022/07/22 08:00:45;;;;;;;6.90;1.77;;;18.20;99.90;;;;;;5030161;28;20044;-83
2022/07/22 08:03:10;;;;;;;3.72;1.00;;;18.30;99.90;;;;;;5034200;28;20033;-83
2022/07/22 08:05:38;;;;;;;8.57;1.02;;;19.10;99.90;;;;;;5039736;28;20051;-83
2022/07/22 08:08:04;;;;;;;4.78;0.90;;;18.40;99.90;;;;;;5032071;28;20085;-83
2022/07/22 08:10:30;;;;;;;4.93;1.65;;;18.30;99.90;;;;;;5030270;28;20492;-83
2022/07/22 08:12:57;;;;;;;5.35;1.00;;;18.30;99.90;;;;;;5014719;28;20045;-84
2022/07/22 08:15:24;;;;;;;5.50;1.17;;;18.40;99.90;;;;;;5029892;28;20140;-83
2022/07/22 08:17:49;;;;;;;2.97;0.80;;;19.00;99.90;;;;;;5013041;28;20057;-83
2022/07/22 08:20:15;;;;;;;4.30;0.93;;;18.40;99.90;;;;;;5048584;28;20377;-83
2022/07/22 08:22:41;;;;;;;6.30;1.30;;;18.90;99.90;;;;;;5046817;28;20045;-83
2022/07/22 08:25:06;;;;;;;7.32;1.30;;;18.40;99.90;;;;;;5016803;28;20046;-84
2022/07/22 08:27:32;;;;;;;5.60;1.20;;;18.50;99.90;;;;;;5027081;28;20045;-84
2022/07/22 08:29:58;;;;;;;5.13;1.20;;;18.60;99.90;;;;;;5033897;28;20116;-84
2022/07/22 08:32:24;;;;;;;4.70;0.95;;;19.00;99.90;;;;;;5017190;28;20065;-83
2022/07/22 08:34:50;;;;;;;7.88;1.25;;;18.80;99.90;;;;;;5042227;28;20046;-84
2022/07/22 08:37:16;;;;;;;4.97;1.00;;;19.20;99.90;;;;;;5017717;28;20565;-84
2022/07/22 08:39:41;;;;;;;2.78;0.77;;;19.20;99.90;;;;;;5023873;28;20124;-83
2022/07/22 08:42:07;;;;;;;4.38;1.20;;;19.30;99.90;;;;;;5017560;28;20884;-83
2022/07/22 08:44:33;;;;;;;5.15;1.00;;;18.70;99.90;;;;;;5047457;28;20041;-83
2022/07/22 08:47:00;;;;;;;4.75;0.77;;;18.90;99.90;;;;;;5018748;28;20052;-83
2022/07/22 08:49:26;;;;;;;4.90;0.73;;;18.90;99.90;;;;;;5015930;28;20666;-83
2022/07/22 08:51:52;;;;;;;4.20;0.98;;;18.50;99.90;;;;;;5049897;28;20040;-84
2022/07/22 08:54:17;;;;;;;6.63;0.93;;;18.50;99.90;;;;;;5042831;28;20400;-84
2022/07/22 08:56:47;;;;;;;5.38;1.10;;;19.00;99.90;;;;;;5056477;28;20119;-83
2022/07/22 08:59:13;;;;;;;5.93;1.80;;;19.10;99.90;;;;;;5042946;28;20049;-83
2022/07/22 09:02:03;;;;;;;6.47;1.10;;;19.10;99.90;;;;;;5040100;28;20037;-84
2022/07/22 09:04:31;;;;;;;6.22;1.05;;;18.50;99.90;;;;;;5015030;28;20072;-83
2022/07/22 09:06:57;;;;;;;5.60;1.00;;;18.60;99.90;;;;;;5052886;28;20084;-83
2022/07/22 09:09:33;;;;;;;6.18;0.93;;;19.20;99.90;;;;;;5047631;28;20052;-83
2022/07/22 09:12:06;;;;;;;5.70;0.73;;;19.20;99.90;;;;;;5024260;28;20049;-83
2022/07/22 09:14:44;;;;;;;4.43;0.93;;;18.90;99.90;;;;;;5037990;28;20432;-84
2022/07/22 09:17:35;;;;;;;10.35;1.20;;;19.30;99.90;;;;;;5048543;28;20581;-84
2022/07/22 09:20:02;;;;;;;4.18;1.27;;;19.10;99.90;;;;;;5027849;28;20052;-84
2022/07/22 09:22:38;;;;;;;4.15;0.90;;;19.50;99.90;;;;;;5049198;28;20089;-84
2022/07/22 09:25:33;;;;;;;7.10;1.05;;;19.20;99.90;;;;;;5043685;28;20061;-84
2022/07/22 09:28:05;;;;;;;7.68;1.00;;;19.20;99.90;;;;;;5049305;28;20044;-84
2022/07/22 09:30:31;;;;;;;3.22;0.93;;;19.70;99.90;;;;;;5050401;28;20726;-83
2022/07/22 09:32:57;;;;;;;5.88;0.80;;;19.70;99.90;;;;;;5051324;28;20444;-83
2022/07/22 09:35:24;;;;;;;4.80;1.00;;;19.10;99.90;;;;;;5050898;28;20170;-83
2022/07/22 09:37:54;;;;;;;3.72;1.00;;;18.90;99.90;;;;;;5048735;28;20041;-84
2022/07/22 09:40:25;;;;;;;5.18;0.70;;;18.90;99.90;;;;;;5033689;28;20057;-83
2022/07/22 09:42:54;;;;;;;9.35;1.00;;;18.90;99.90;;;;;;5031796;28;20523;-84
2022/07/22 09:45:22;;;;;;;4.13;1.15;;;19.00;99.90;;;;;;5051586;28;20041;-84
2022/07/22 09:47:48;;;;;;;4.28;0.93;;;18.90;99.90;;;;;;5056012;28;20040;-84
2022/07/22 09:50:25;;;;;;;5.18;0.80;;;18.90;99.90;;;;;;5051934;28;20041;-84
2022/07/22 09:52:52;;;;;;;5.60;0.90;;;19.00;99.90;;;;;;5022051;28;20049;-84
2022/07/22 09:55:21;;;;;;;6.03;0.90;;;18.90;99.90;;;;;;5078098;28;20377;-84
2022/07/22 09:57:48;;;;;;;4.68;1.00;;;19.00;99.90;;;;;;5034127;28;20130;-84
2022/07/22 10:00:17;;;;;;;4.88;1.08;;;19.10;99.90;;;;;;5039220;28;20056;-84
2022/07/22 10:02:58;;;;;;;3.95;0.90;;;18.90;99.90;;;;;;5051946;28;20048;-84
2022/07/22 10:05:29;;;;;;;7.90;0.80;;;18.90;99.90;;;;;;5018893;28;20060;-84
2022/07/22 10:07:56;;;;;;;4.15;0.80;;;18.90;99.90;;;;;;5030542;28;20049;-83
2022/07/22 10:10:24;;;;;;;4.28;0.77;;;18.90;99.90;;;;;;5048970;28;20446;-83
2022/07/22 10:12:51;;;;;;;3.95;0.82;;;18.90;99.90;;;;;;5048396;28;20521;-83
2022/07/22 10:15:17;;;;;;;5.07;0.88;;;19.30;99.90;;;;;;5021562;28;20049;-83
2022/07/22 10:17:48;;;;;;;4.22;0.75;;;18.80;99.90;;;;;;5046641;28;20110;-83
2022/07/22 10:20:18;;;;;;;6.88;1.10;;;18.70;99.90;;;;;;5033455;28;20720;-83
2022/07/22 10:22:47;;;;;;;4.13;0.70;;;18.70;99.90;;;;;;5041155;28;20090;-84
2022/07/22 10:25:14;;;;;;;3.47;0.75;;;18.70;99.90;;;;;;5037676;28;20037;-83
2022/07/22 10:28:05;;;;;;;4.20;0.70;;;18.70;99.90;;;;;;5018845;28;20047;-83
2022/07/22 10:30:41;;;;;;;3.28;0.70;;;18.80;99.90;;;;;;5047895;28;20515;-83
2022/07/22 10:33:12;;;;;;;3.67;0.68;;;18.90;99.90;;;;;;5043440;28;20049;-83
2022/07/22 10:35:59;;;;;;;7.72;0.73;;;18.80;99.90;;;;;;5030632;28;20100;-83
2022/07/22 10:38:26;;;;;;;3.13;0.60;;;19.40;99.90;;;;;;5016036;28;20064;-83
2022/07/22 10:40:53;;;;;;;3.92;0.75;;;18.80;99.90;;;;;;5041470;28;20084;-83
2022/07/22 10:43:24;;;;;;;1.85;0.50;;;19.40;99.90;;;;;;5046749;28;20389;-83
2022/07/22 10:46:02;;;;;;;6.78;0.60;;;18.90;99.90;;;;;;5031479;28;20048;-83
2022/07/22 10:48:37;;;;;;;4.13;0.60;;;18.90;99.90;;;;;;5039194;28;20070;-83
2022/07/22 10:51:18;;;;;;;4.18;0.60;;;19.20;99.90;;;;;;5031791;28;20123;-82
2022/07/22 10:54:02;;;;;;;4.03;0.57;;;18.90;99.90;;;;;;5036052;28;20093;-83
2022/07/22 10:56:35;;;;;;;3.05;0.50;;;19.60;99.90;;;;;;5034362;28;20036;-83
2022/07/22 10:59:12;;;;;;;2.92;0.70;;;19.40;99.90;;;;;;5015920;28;20053;-83
2022/07/22 11:01:45;;;;;;;3.00;0.52;;;20.00;99.90;;;;;;5033317;28;20064;-83
2022/07/22 11:04:24;;;;;;;2.65;0.70;;;19.60;99.90;;;;;;5054959;28;20049;-83
2022/07/22 11:06:52;;;;;;;4.05;0.60;;;19.50;99.90;;;;;;5048371;28;20060;-83
2022/07/22 11:09:21;;;;;;;3.60;0.60;;;19.70;99.90;;;;;;5031477;28;20053;-85
2022/07/22 11:11:54;;;;;;;3.33;0.50;;;19.90;99.90;;;;;;5020302;28;20060;-85
2022/07/22 11:14:31;;;;;;;3.95;0.45;;;20.00;99.90;;;;;;5021093;28;20124;-85
2022/07/22 11:17:08;;;;;;;2.58;0.70;;;20.20;99.90;;;;;;5031234;28;20124;-85
2022/07/22 11:19:37;;;;;;;4.00;0.73;;;20.40;99.90;;;;;;5036934;28;20064;-85
2022/07/22 11:22:10;;;;;;;0.80;0.40;;;20.90;99.90;;;;;;5033842;28;20045;-85
2022/07/22 11:24:36;;;;;;;2.05;0.70;;;20.50;99.90;;;;;;5035618;28;20032;-85
2022/07/22 11:27:03;;;;;;;4.70;0.60;;;20.60;99.90;;;;;;5016502;28;20042;-85
2022/07/22 11:29:52;;;;;;;5.00;0.75;;;20.60;99.90;;;;;;5019626;28;20049;-85
2022/07/22 11:32:22;;;;;;;2.30;0.57;;;20.60;99.90;;;;;;5041361;28;20049;-85
2022/07/22 11:34:48;;;;;;;1.98;0.50;;;20.50;99.90;;;;;;5029640;28;20045;-85
2022/07/22 11:37:15;;;;;;;2.08;0.40;;;20.50;99.90;;;;;;5031156;28;20477;-85
2022/07/22 11:39:41;;;;;;;4.95;0.65;;;20.60;99.90;;;;;;5038919;28;20044;-85
2022/07/22 11:42:07;;;;;;;2.75;0.40;;;20.00;99.90;;;;;;5041255;28;20041;-85
2022/07/22 11:44:36;;;;;;;3.20;0.65;;;20.50;99.90;;;;;;5040065;28;20051;-85
2022/07/22 11:47:03;;;;;;;3.63;0.50;;;20.30;99.90;;;;;;5033136;28;20041;-85
2022/07/22 11:49:33;;;;;;;3.83;0.50;;;20.10;99.90;;;;;;5035098;28;20091;-85
2022/07/22 11:51:59;;;;;;;4.28;0.60;;;20.10;99.90;;;;;;5064181;28;20072;-85
2022/07/22 11:54:25;;;;;;;2.38;0.52;;;20.10;99.90;;;;;;5040977;28;20085;-85
2022/07/22 11:56:51;;;;;;;1.40;0.40;;;20.70;99.90;;;;;;5031406;28;20073;-85
2022/07/22 11:59:19;;;;;;;1.85;0.52;;;20.70;99.90;;;;;;5029448;28;20087;-84
2022/07/22 12:01:47;;;;;;;2.25;0.50;;;20.60;99.90;;;;;;5024804;28;20562;-85
2022/07/22 12:04:24;;;;;;;2.85;0.60;;;20.40;99.90;;;;;;5042125;28;20099;-85
2022/07/22 12:06:54;;;;;;;1.60;0.50;;;20.60;99.90;;;;;;5016812;28;20497;-85
2022/07/22 12:09:21;;;;;;;2.45;0.45;;;20.70;99.90;;;;;;5013210;28;20168;-85
2022/07/22 12:11:50;;;;;;;3.00;0.52;;;21.40;99.90;;;;;;5047436;28;20056;-85
2022/07/22 12:14:20;;;;;;;2.80;0.68;;;20.70;99.90;;;;;;5031271;28;20092;-85
2022/07/22 12:16:59;;;;;;;3.25;0.52;;;20.70;99.90;;;;;;5014629;28;20049;-84
2022/07/22 12:19:29;;;;;;;3.28;0.60;;;20.80;99.90;;;;;;5034750;28;20049;-84
2022/07/22 12:21:56;;;;;;;3.40;0.65;;;20.80;99.90;;;;;;5013796;28;20635;-85
2022/07/22 12:24:40;;;;;;;2.60;0.88;;;20.70;99.90;;;;;;5034679;28;20084;-85
2022/07/22 12:27:10;;;;;;;6.78;0.60;;;20.90;99.90;;;;;;5018015;28;20041;-84
2022/07/22 12:29:36;;;;;;;2.95;0.98;;;21.50;99.90;;;;;;5016862;28;20408;-82
2022/07/22 12:32:14;;;;;;;2.35;0.65;;;20.70;99.90;;;;;;5032191;28;20044;-82
2022/07/22 12:34:46;;;;;;;2.40;0.60;;;20.90;99.90;;;;;;5041368;28;20459;-82
2022/07/22 12:37:13;;;;;;;3.03;0.60;;;21.00;99.90;;;;;;5037564;28;20477;-82
2022/07/22 12:39:39;;;;;;;1.65;0.47;;;21.40;99.90;;;;;;5026518;28;20117;-82
2022/07/22 12:42:16;;;;;;;4.72;0.70;;;21.10;99.90;;;;;;5038657;28;20167;-82
2022/07/22 12:44:51;;;;;;;2.22;0.70;;;21.00;99.90;;;;;;5039362;28;20055;-82
2022/07/22 12:47:17;;;;;;;4.10;0.60;;;21.50;99.90;;;;;;5042754;28;20412;-82